»·PEaware :: UAL435 KSBP-KLGB

UAL435 :: KSBP-KLGB

FLIGHT INFORMATION

Flight Status: Arrived
Operator:
United Airlines
More flights by this operator :: More flights under this callsign
Pilot: Brian A. (9771)
Aircraft: BOEING 727-100
(B721)
More flights by this aircraft type
Origin: KSBP San Luis Co Regl
United States
Destination: KLGB Long Beach
United States
More flights between these airports :: More routes between these airports
Route: +RZS VTU V208 SXC SLI
File this flight plan on PilotEdge
Remarks: none
Altitude:
(Current/Filed)
270ft
Speed:
(Current/Filed)
425kts
Departed: 31-Dec-18 09:27 AM
Arrived: 31-Dec-18 10:06 AM
Distance/Time
Traveled:
135nm/0:38
Distance/Time
To Go:
Arrived

Flight Plot

Page will automatically refresh every two minutes.


Map Options




Map Legend


Flown Route
Filed Route
Departure Airport
Arrival Airport
Navaid (VOR, NDB)
Fix

Horizontal Profiles

Position Reports

Time Latitude Longitude Heading Altitude Ground
Speed
31-Dec-18 09:03 35.237918 -120.638362 63 224ft 0kts
31-Dec-18 09:04 35.237918 -120.638362 63 224ft 0kts
31-Dec-18 09:05 35.237918 -120.638362 63 224ft 0kts
31-Dec-18 09:06 35.237918 -120.638362 63 224ft 0kts
31-Dec-18 09:07 35.237918 -120.638362 63 224ft 0kts
31-Dec-18 09:08 35.237918 -120.638362 63 224ft 0kts
31-Dec-18 09:09 35.237918 -120.638362 63 224ft 0kts
31-Dec-18 09:10 35.237918 -120.638362 63 224ft 0kts
31-Dec-18 09:11 35.237918 -120.638362 63 224ft 0kts
31-Dec-18 09:12 35.237918 -120.638362 63 224ft 0kts
31-Dec-18 09:13 35.237918 -120.638362 63 224ft 0kts
31-Dec-18 09:14 35.237918 -120.638362 63 224ft 0kts
31-Dec-18 09:15 35.237918 -120.638362 63 224ft 0kts
31-Dec-18 09:16 35.237918 -120.638362 63 224ft 0kts
31-Dec-18 09:17 35.237779 -120.638703 63 224ft 2kts
31-Dec-18 09:18 35.237572 -120.639390 96 224ft 2kts
31-Dec-18 09:19 35.237677 -120.639693 125 224ft 0kts
31-Dec-18 09:20 35.237677 -120.639693 125 224ft 0kts
31-Dec-18 09:21 35.237677 -120.639693 125 224ft 0kts
31-Dec-18 09:22 35.237677 -120.639693 125 224ft 0kts
31-Dec-18 09:23 35.234513 -120.634101 125 224ft 29kts
31-Dec-18 09:24 35.233266 -120.632183 201 224ft 0kts
31-Dec-18 09:25 35.232993 -120.632442 227 224ft 9kts
31-Dec-18 09:26 35.241952 -120.649079 304 579ft 145kts
31-Dec-18 09:27 35.269112 -120.692236 310 3206ft 188kts
31-Dec-18 09:28 35.294028 -120.756772 264 7504ft 257kts
31-Dec-18 09:29 35.222890 -120.813481 178 11674ft 362kts
31-Dec-18 09:30 35.131564 -120.726519 116 11059ft 466kts
31-Dec-18 09:31 35.086112 -120.579881 102 11043ft 454kts
31-Dec-18 09:32 35.036766 -120.438784 120 11018ft 451kts
31-Dec-18 09:33 34.951344 -120.328827 122 11030ft 442kts
31-Dec-18 09:34 34.872681 -120.216929 132 11020ft 445kts
31-Dec-18 09:35 34.785887 -120.108500 133 11003ft 448kts
31-Dec-18 09:36 34.698095 -120.000773 134 10998ft 449kts
31-Dec-18 09:37 34.609667 -119.892789 133 10985ft 451kts
31-Dec-18 09:38 34.520646 -119.784428 133 10969ft 452kts
31-Dec-18 09:39 34.448134 -119.664461 115 10967ft 444kts
31-Dec-18 09:40 34.383190 -119.536085 119 10970ft 455kts
31-Dec-18 09:41 34.313230 -119.405337 120 10983ft 467kts
31-Dec-18 09:42 34.243011 -119.279421 121 10983ft 472kts
31-Dec-18 09:43 34.169661 -119.147313 121 10978ft 459kts
31-Dec-18 09:44 34.090562 -119.033123 154 10980ft 438kts
31-Dec-18 09:45 33.976915 -119.029140 194 10981ft 403kts
31-Dec-18 09:46 33.864825 -119.025768 183 10976ft 399kts
31-Dec-18 09:48 33.754940 -119.013220 160 10968ft 401kts
31-Dec-18 09:49 33.686254 -118.912725 116 10983ft 394kts
31-Dec-18 09:50 33.637254 -118.795501 117 10982ft 389kts
31-Dec-18 09:51 33.575726 -118.689808 125 10982ft 386kts
31-Dec-18 09:52 33.506450 -118.593552 132 10971ft 362kts
31-Dec-18 09:53 33.442894 -118.506990 122 9695ft 342kts
31-Dec-18 09:54 33.458156 -118.413392 30 8125ft 294kts
31-Dec-18 09:55 33.505907 -118.347594 83 7841ft 275kts
31-Dec-18 09:56 33.505872 -118.255605 86 6556ft 272kts
31-Dec-18 09:57 33.506923 -118.167637 72 4888ft 255kts
31-Dec-18 09:58 33.539083 -118.095615 58 3156ft 237kts
31-Dec-18 09:59 33.576035 -118.042726 25 2900ft 180kts
31-Dec-18 10:00 33.630057 -118.012276 25 2999ft 248kts
31-Dec-18 10:01 33.697505 -118.014055 340 2961ft 232kts
31-Dec-18 10:02 33.738536 -118.055663 316 2125ft 156kts
31-Dec-18 10:03 33.765243 -118.087830 316 1362ft 143kts
31-Dec-18 10:04 33.792135 -118.120441 315 541ft 133kts
31-Dec-18 10:05 33.815623 -118.148820 317 52ft 92kts
31-Dec-18 10:05 33.821551 -118.155101 68 52ft 10kts
31-Dec-18 10:07 33.821694 -118.149790 93 52ft 17kts
31-Dec-18 10:08 33.819404 -118.146978 180 52ft 16kts
31-Dec-18 10:08 33.818219 -118.146154 87 52ft 0kts
31-Dec-18 10:09 33.818219 -118.146154 87 52ft 0kts
31-Dec-18 10:10 33.818219 -118.146154 87 52ft 0kts
31-Dec-18 10:11 33.818219 -118.146154 87 52ft 0kts
31-Dec-18 10:13 33.818219 -118.146154 87 52ft 0kts
31-Dec-18 10:19 33.940037 -118.401856 355 115ft 0kts

Navigation Log

Ident Type
Flight plan parsing failed, navigation log unavailable